Time,TemperatureF,DewpointF,PressureIn,WindDirection,WindDirectionDegrees,WindSpeedMPH,WindSpeedGustMPH,Humidity,HourlyPrecipIn,Conditions,Clouds,dailyrainin,SolarRadiationWatts/m^2,SoftwareType,DateUTC
2013-03-14 00:02:00,6.0,1.0,-100.00,East,90,12.0,13.0,82,0.00,,,0.00,0.700000,,2013-03-14 08:02:00,
2013-03-14 00:12:00,6.0,1.0,-100.00,East,90,12.0,13.0,82,0.00,,,0.00,0.700000,,2013-03-14 08:12:00,
2013-03-14 00:21:00,6.0,1.0,-100.00,East,90,12.0,13.0,82,0.00,,,0.00,0.700000,,2013-03-14 08:21:00,
2013-03-14 00:31:00,6.0,1.0,-100.00,East,90,12.0,13.0,82,0.00,,,0.00,0.700000,,2013-03-14 08:31:00,
2013-03-14 00:41:00,6.0,1.0,-100.00,East,90,12.0,13.0,82,0.00,,,0.00,0.700000,,2013-03-14 08:41:00,
2013-03-14 01:01:00,6.0,1.0,-100.00,East,89,9.0,13.0,82,0.00,,,-99.99,0.700000,,2013-03-14 09:01:00,
2013-03-14 01:12:00,6.0,1.0,-100.00,East,89,9.0,13.0,82,0.00,,,-99.99,0.700000,,2013-03-14 09:12:00,
2013-03-14 01:22:00,6.0,1.0,-100.00,East,89,9.0,13.0,82,0.00,,,-99.99,0.700000,,2013-03-14 09:22:00,
2013-03-14 01:32:00,6.0,1.0,-100.00,East,89,9.0,13.0,82,0.00,,,-99.99,0.700000,,2013-03-14 09:32:00,
2013-03-14 01:42:00,6.0,1.0,-100.00,East,89,9.0,13.0,82,0.00,,,-99.99,0.700000,,2013-03-14 09:42:00,
2013-03-14 02:02:00,6.0,1.0,-100.00,East,90,9.0,11.0,82,0.00,,,-99.99,0.700000,,2013-03-14 10:02:00,
2013-03-14 02:12:00,6.0,1.0,-100.00,East,90,9.0,11.0,82,0.00,,,-99.99,0.700000,,2013-03-14 10:12:00,
2013-03-14 02:22:00,6.0,1.0,-100.00,East,90,9.0,11.0,82,0.00,,,-99.99,0.700000,,2013-03-14 10:22:00,
2013-03-14 02:32:00,6.0,1.0,-100.00,East,90,9.0,11.0,82,0.00,,,-99.99,0.700000,,2013-03-14 10:32:00,
2013-03-14 02:41:00,6.0,1.0,-100.00,East,90,9.0,11.0,82,0.00,,,-99.99,0.700000,,2013-03-14 10:41:00,
2013-03-14 03:02:00,6.0,2.0,-100.00,East,84,11.0,11.0,82,0.00,,,-99.99,0.700000,,2013-03-14 11:02:00,
2013-03-14 03:12:00,6.0,2.0,-100.00,East,84,11.0,11.0,82,0.00,,,-99.99,0.700000,,2013-03-14 11:12:00,
2013-03-14 03:22:00,6.0,2.0,-100.00,East,84,11.0,11.0,82,0.00,,,-99.99,0.700000,,2013-03-14 11:22:00,
2013-03-14 03:32:00,6.0,2.0,-100.00,East,84,11.0,11.0,82,0.00,,,-99.99,0.700000,,2013-03-14 11:32:00,
2013-03-14 03:42:00,6.0,2.0,-100.00,East,84,11.0,11.0,82,0.00,,,-99.99,0.700000,,2013-03-14 11:42:00,
2013-03-14 04:02:00,6.0,1.0,-100.00,East,88,11.0,13.0,82,0.00,,,-99.99,0.700000,,2013-03-14 12:02:00,
2013-03-14 04:12:00,6.0,1.0,-100.00,East,88,11.0,13.0,82,0.00,,,-99.99,0.700000,,2013-03-14 12:12:00,
2013-03-14 04:22:00,6.0,1.0,-100.00,East,88,11.0,13.0,82,0.00,,,-99.99,0.700000,,2013-03-14 12:22:00,
2013-03-14 04:32:00,6.0,1.0,-100.00,East,88,11.0,13.0,82,0.00,,,-99.99,0.700000,,2013-03-14 12:32:00,
2013-03-14 04:42:00,6.0,1.0,-100.00,East,88,11.0,13.0,82,0.00,,,-99.99,0.700000,,2013-03-14 12:42:00,
2013-03-14 05:02:00,5.0,1.0,-100.00,East,89,9.0,13.0,82,0.00,,,-99.99,0.700000,,2013-03-14 13:02:00,
2013-03-14 05:12:00,5.0,1.0,-100.00,East,89,9.0,13.0,82,0.00,,,-99.99,0.700000,,2013-03-14 13:12:00,
2013-03-14 05:22:00,5.0,1.0,-100.00,East,89,9.0,13.0,82,0.00,,,-99.99,0.700000,,2013-03-14 13:22:00,
2013-03-14 05:32:00,5.0,1.0,-100.00,East,89,9.0,13.0,82,0.00,,,-99.99,0.700000,,2013-03-14 13:32:00,
2013-03-14 05:42:00,5.0,1.0,-100.00,East,89,9.0,13.0,82,0.00,,,-99.99,0.700000,,2013-03-14 13:42:00,
2013-03-14 06:02:00,6.0,2.0,-100.00,East,98,13.0,13.0,83,0.00,,,-99.99,0.700000,,2013-03-14 14:02:00,
2013-03-14 06:12:00,6.0,2.0,-100.00,East,98,13.0,13.0,83,0.00,,,-99.99,0.700000,,2013-03-14 14:12:00,
2013-03-14 06:22:00,6.0,2.0,-100.00,East,98,13.0,13.0,83,0.00,,,-99.99,0.700000,,2013-03-14 14:22:00,
2013-03-14 06:32:00,6.0,2.0,-100.00,East,98,13.0,13.0,83,0.00,,,-99.99,0.700000,,2013-03-14 14:32:00,
2013-03-14 06:42:00,6.0,2.0,-100.00,East,98,13.0,13.0,83,0.00,,,-99.99,0.700000,,2013-03-14 14:42:00,
2013-03-14 07:02:00,6.0,2.0,-100.00,East,91,12.0,15.0,83,0.00,,,-99.99,0.700000,,2013-03-14 15:02:00,
2013-03-14 07:12:00,6.0,2.0,-100.00,East,91,12.0,15.0,83,0.00,,,-99.99,0.700000,,2013-03-14 15:12:00,
2013-03-14 07:22:00,6.0,2.0,-100.00,East,91,12.0,15.0,83,0.00,,,-99.99,0.700000,,2013-03-14 15:22:00,
2013-03-14 07:32:00,6.0,2.0,-100.00,East,91,12.0,15.0,83,0.00,,,-99.99,0.700000,,2013-03-14 15:32:00,
2013-03-14 07:42:00,6.0,2.0,-100.00,East,91,12.0,15.0,83,0.00,,,-99.99,0.700000,,2013-03-14 15:42:00,
2013-03-14 08:02:00,7.0,3.0,-100.00,East,90,11.0,14.0,83,0.00,,,-99.99,0.700000,,2013-03-14 16:02:00,
2013-03-14 08:12:00,7.0,3.0,-100.00,East,90,11.0,14.0,83,0.00,,,-99.99,0.700000,,2013-03-14 16:12:00,
2013-03-14 08:22:00,7.0,3.0,-100.00,East,90,11.0,14.0,83,0.00,,,-99.99,0.700000,,2013-03-14 16:22:00,
2013-03-14 08:32:00,7.0,3.0,-100.00,East,90,11.0,14.0,83,0.00,,,-99.99,0.700000,,2013-03-14 16:32:00,
2013-03-14 08:41:00,7.0,3.0,-100.00,East,90,11.0,14.0,83,0.00,,,-99.99,0.700000,,2013-03-14 16:41:00,
2013-03-14 09:02:00,7.0,3.0,-100.00,East,100,9.0,14.0,83,0.00,,,-99.99,4.200000,,2013-03-14 17:02:00,
2013-03-14 09:12:00,7.0,3.0,-100.00,East,100,9.0,14.0,83,0.00,,,-99.99,4.200000,,2013-03-14 17:12:00,
2013-03-14 09:23:00,7.0,3.0,-100.00,East,100,9.0,14.0,83,0.00,,,-99.99,4.200000,,2013-03-14 17:23:00,
2013-03-14 09:32:00,7.0,3.0,-100.00,East,100,9.0,14.0,83,0.00,,,-99.99,4.200000,,2013-03-14 17:32:00,
2013-03-14 09:41:00,7.0,3.0,-100.00,East,100,9.0,14.0,83,0.00,,,-99.99,4.200000,,2013-03-14 17:41:00,
2013-03-14 10:02:00,9.0,5.0,-100.00,East,85,14.0,14.0,84,0.00,,,0.00,35.200001,,2013-03-14 18:02:00,
2013-03-14 10:12:00,9.0,5.0,-100.00,East,85,14.0,14.0,84,0.00,,,0.00,35.200001,,2013-03-14 18:12:00,
2013-03-14 10:22:00,9.0,5.0,-100.00,East,85,14.0,14.0,84,0.00,,,0.00,35.200001,,2013-03-14 18:22:00,
2013-03-14 10:32:00,9.0,5.0,-100.00,East,85,14.0,14.0,84,0.00,,,0.00,35.200001,,2013-03-14 18:32:00,
2013-03-14 10:42:00,9.0,5.0,-100.00,East,85,14.0,14.0,84,0.00,,,0.00,35.200001,,2013-03-14 18:42:00,
2013-03-14 11:02:00,13.0,10.0,-100.00,East,95,18.0,18.0,87,0.00,,,0.00,96.400002,,2013-03-14 19:02:00,
2013-03-14 11:12:00,13.0,10.0,-100.00,East,95,18.0,18.0,87,0.00,,,0.00,96.400002,,2013-03-14 19:12:00,
2013-03-14 11:22:00,13.0,10.0,-100.00,East,95,18.0,18.0,87,0.00,,,0.00,96.400002,,2013-03-14 19:22:00,
2013-03-14 11:32:00,13.0,10.0,-100.00,East,95,18.0,18.0,87,0.00,,,0.00,96.400002,,2013-03-14 19:32:00,
2013-03-14 11:42:00,13.0,10.0,-100.00,East,95,18.0,18.0,87,0.00,,,0.00,96.400002,,2013-03-14 19:42:00,
2013-03-14 12:43:00,15.0,13.0,-100.00,ESE,120,23.0,39.0,88,-99.99,,,0.00,250.699997,,2013-03-14 20:43:00,
2013-03-14 13:02:00,15.0,13.0,-100.00,ESE,120,23.0,39.0,88,-99.99,,,0.00,250.699997,,2013-03-14 21:02:00,
2013-03-14 13:12:00,15.0,13.0,-100.00,ESE,120,23.0,39.0,88,-99.99,,,0.00,250.699997,,2013-03-14 21:12:00,
2013-03-14 13:22:00,15.0,13.0,-100.00,ESE,120,23.0,39.0,88,-99.99,,,0.00,250.699997,,2013-03-14 21:22:00,
2013-03-14 13:32:00,15.0,13.0,-100.00,ESE,120,23.0,39.0,88,-99.99,,,0.00,250.699997,,2013-03-14 21:32:00,
2013-03-14 14:03:00,16.0,13.0,-100.00,SE,132,27.0,35.0,87,0.00,,,0.00,273.700012,,2013-03-14 22:03:00,
2013-03-14 14:12:00,16.0,13.0,-100.00,SE,132,27.0,35.0,87,0.00,,,0.00,273.700012,,2013-03-14 22:12:00,
2013-03-14 14:23:00,16.0,13.0,-100.00,SE,132,27.0,35.0,87,0.00,,,0.00,273.700012,,2013-03-14 22:23:00,
2013-03-14 14:32:00,16.0,13.0,-100.00,SE,132,27.0,35.0,87,0.00,,,0.00,273.700012,,2013-03-14 22:32:00,
2013-03-14 14:42:00,16.0,13.0,-100.00,SE,132,27.0,35.0,87,0.00,,,0.00,273.700012,,2013-03-14 22:42:00,
2013-03-14 15:02:00,15.0,12.0,-100.00,ESE,117,20.0,35.0,87,0.00,,,0.00,271.500000,,2013-03-14 23:02:00,
2013-03-14 15:12:00,15.0,12.0,-100.00,ESE,117,20.0,35.0,87,0.00,,,0.00,271.500000,,2013-03-14 23:12:00,
2013-03-14 15:22:00,15.0,12.0,-100.00,ESE,117,20.0,35.0,87,0.00,,,0.00,271.500000,,2013-03-14 23:22:00,
2013-03-14 15:32:00,15.0,12.0,-100.00,ESE,117,20.0,35.0,87,0.00,,,0.00,271.500000,,2013-03-14 23:32:00,
2013-03-14 15:42:00,15.0,12.0,-100.00,ESE,117,20.0,35.0,87,0.00,,,0.00,271.500000,,2013-03-14 23:42:00,
2013-03-14 16:02:00,17.0,14.0,-100.00,ESE,114,13.0,36.0,88,0.00,,,0.00,305.500000,,2013-03-15 00:02:00,
2013-03-14 16:12:00,17.0,14.0,-100.00,ESE,114,13.0,36.0,88,0.00,,,0.00,305.500000,,2013-03-15 00:12:00,
2013-03-14 16:22:00,17.0,14.0,-100.00,ESE,114,13.0,36.0,88,0.00,,,0.00,305.500000,,2013-03-15 00:22:00,
2013-03-14 16:32:00,17.0,14.0,-100.00,ESE,114,13.0,36.0,88,0.00,,,0.00,305.500000,,2013-03-15 00:32:00,
2013-03-14 16:42:00,17.0,14.0,-100.00,ESE,114,13.0,36.0,88,0.00,,,0.00,305.500000,,2013-03-15 00:42:00,
2013-03-14 17:02:00,17.0,14.0,-100.00,ESE,108,21.0,24.0,89,0.00,,,0.00,198.800003,,2013-03-15 01:02:00,
2013-03-14 17:11:00,17.0,14.0,-100.00,ESE,108,21.0,24.0,89,0.00,,,0.00,198.800003,,2013-03-15 01:11:00,
2013-03-14 17:22:00,17.0,14.0,-100.00,ESE,108,21.0,24.0,89,0.00,,,0.00,198.800003,,2013-03-15 01:22:00,
2013-03-14 17:32:00,17.0,14.0,-100.00,ESE,108,21.0,24.0,89,0.00,,,0.00,198.800003,,2013-03-15 01:32:00,
2013-03-14 17:41:00,17.0,14.0,-100.00,ESE,108,21.0,24.0,89,0.00,,,0.00,198.800003,,2013-03-15 01:41:00,
2013-03-14 18:02:00,16.0,13.0,-100.00,ESE,109,20.0,30.0,88,0.00,,,0.00,174.100006,,2013-03-15 02:02:00,
2013-03-14 18:12:00,16.0,13.0,-100.00,ESE,109,20.0,30.0,88,0.00,,,0.00,174.100006,,2013-03-15 02:12:00,
2013-03-14 18:22:00,16.0,13.0,-100.00,ESE,109,20.0,30.0,88,0.00,,,0.00,174.100006,,2013-03-15 02:22:00,
2013-03-14 18:32:00,16.0,13.0,-100.00,ESE,109,20.0,30.0,88,0.00,,,0.00,174.100006,,2013-03-15 02:32:00,
2013-03-14 18:42:00,16.0,13.0,-100.00,ESE,109,20.0,30.0,88,0.00,,,0.00,174.100006,,2013-03-15 02:42:00,
2013-03-14 19:02:00,16.0,13.0,-100.00,East,99,20.0,30.0,89,0.00,,,0.00,121.099998,,2013-03-15 03:02:00,
2013-03-14 19:12:00,16.0,13.0,-100.00,East,99,20.0,30.0,89,0.00,,,0.00,121.099998,,2013-03-15 03:12:00,
2013-03-14 19:22:00,16.0,13.0,-100.00,East,99,20.0,30.0,89,0.00,,,0.00,121.099998,,2013-03-15 03:22:00,
2013-03-14 19:32:00,16.0,13.0,-100.00,East,99,20.0,30.0,89,0.00,,,0.00,121.099998,,2013-03-15 03:32:00,
2013-03-14 19:42:00,16.0,13.0,-100.00,East,99,20.0,30.0,89,0.00,,,0.00,121.099998,,2013-03-15 03:42:00,
2013-03-14 20:03:00,16.0,13.0,-100.00,ESE,121,18.0,33.0,89,0.00,,,0.00,40.400002,,2013-03-15 04:03:00,
2013-03-14 20:12:00,16.0,13.0,-100.00,ESE,121,18.0,33.0,89,0.00,,,0.00,40.400002,,2013-03-15 04:12:00,
2013-03-14 20:22:00,16.0,13.0,-100.00,ESE,121,18.0,33.0,89,0.00,,,0.00,40.400002,,2013-03-15 04:22:00,
2013-03-14 20:32:00,16.0,13.0,-100.00,ESE,121,18.0,33.0,89,0.00,,,0.00,40.400002,,2013-03-15 04:32:00,
2013-03-14 20:42:00,16.0,13.0,-100.00,ESE,121,18.0,33.0,89,0.00,,,0.00,40.400002,,2013-03-15 04:42:00,
2013-03-14 21:02:00,14.0,11.0,-100.00,ESE,115,20.0,32.0,88,0.00,,,0.00,3.300000,,2013-03-15 05:02:00,
2013-03-14 21:12:00,14.0,11.0,-100.00,ESE,115,20.0,32.0,88,0.00,,,0.00,3.300000,,2013-03-15 05:12:00,
2013-03-14 21:22:00,14.0,11.0,-100.00,ESE,115,20.0,32.0,88,0.00,,,0.00,3.300000,,2013-03-15 05:22:00,
2013-03-14 21:32:00,14.0,11.0,-100.00,ESE,115,20.0,32.0,88,0.00,,,0.00,3.300000,,2013-03-15 05:32:00,
2013-03-14 21:42:00,14.0,11.0,-100.00,ESE,115,20.0,32.0,88,0.00,,,0.00,3.300000,,2013-03-15 05:42:00,
2013-03-14 22:02:00,14.0,11.0,-100.00,ESE,116,19.0,34.0,88,0.00,,,0.00,0.700000,,2013-03-15 06:02:00,
2013-03-14 22:12:00,14.0,11.0,-100.00,ESE,116,19.0,34.0,88,0.00,,,0.00,0.700000,,2013-03-15 06:12:00,
2013-03-14 22:22:00,14.0,11.0,-100.00,ESE,116,19.0,34.0,88,0.00,,,0.00,0.700000,,2013-03-15 06:22:00,
2013-03-14 22:32:00,14.0,11.0,-100.00,ESE,116,19.0,34.0,88,0.00,,,0.00,0.700000,,2013-03-15 06:32:00,
2013-03-14 22:42:00,14.0,11.0,-100.00,ESE,116,19.0,34.0,88,0.00,,,0.00,0.700000,,2013-03-15 06:42:00,